Time;durP1;ratioP1;P1;durP2;ratioP2;P2;SDS_P1;SDS_P2;PMS_P1;PMS_P2;Temp;Humidity;BMP_temperature;BMP_pressure;BME280_temperature;BME280_humidity;BME280_pressure;Samples;Min_cycle;Max_cycle;Signal;HPM_P1;HPM_P2
2021/08/23 00:00:01;;;;;;;7.88;5.30;;;16.30;99.90;;;;;;5049857;28;20204;-76
2021/08/23 00:02:28;;;;;;;8.63;5.35;;;16.30;99.90;;;;;;5050997;28;20211;-75
2021/08/23 00:04:55;;;;;;;10.15;5.72;;;16.30;99.90;;;;;;5053201;28;20737;-75
2021/08/23 00:07:22;;;;;;;10.10;6.07;;;16.30;99.90;;;;;;5045958;28;20202;-75
2021/08/23 00:09:50;;;;;;;10.55;6.32;;;16.30;99.90;;;;;;5042684;28;20199;-75
2021/08/23 00:12:17;;;;;;;11.88;6.93;;;16.30;99.90;;;;;;5047181;28;20282;-75
2021/08/23 00:14:44;;;;;;;10.55;6.30;;;16.40;99.90;;;;;;5047984;28;20207;-75
2021/08/23 00:17:11;;;;;;;12.68;7.57;;;16.30;99.90;;;;;;5051379;28;20211;-75
2021/08/23 00:19:38;;;;;;;10.95;6.63;;;16.30;99.90;;;;;;5043018;28;20203;-75
2021/08/23 00:22:20;;;;;;;13.23;8.15;;;16.30;99.90;;;;;;5049292;28;20230;-75
2021/08/23 00:24:48;;;;;;;11.43;7.15;;;16.40;99.90;;;;;;5053107;28;20200;-75
2021/08/23 00:27:16;;;;;;;9.23;6.75;;;16.40;99.90;;;;;;5056237;28;20199;-75
2021/08/23 00:29:43;;;;;;;10.82;7.88;;;16.50;99.90;;;;;;5046022;28;20218;-75
2021/08/23 00:32:10;;;;;;;12.40;8.10;;;16.50;99.90;;;;;;5048844;28;20201;-75
2021/08/23 00:34:37;;;;;;;13.20;8.20;;;16.50;99.90;;;;;;5056650;28;20571;-76
2021/08/23 00:37:05;;;;;;;11.15;7.47;;;16.50;99.90;;;;;;5045512;28;20225;-76
2021/08/23 00:39:33;;;;;;;12.07;7.90;;;16.60;99.90;;;;;;5047146;28;20573;-76
2021/08/23 00:42:00;;;;;;;13.65;8.98;;;16.60;99.90;;;;;;5043225;28;20220;-75
2021/08/23 00:44:29;;;;;;;15.13;9.13;;;16.60;99.90;;;;;;5047367;28;20206;-76
2021/08/23 00:46:57;;;;;;;13.90;9.75;;;16.60;99.90;;;;;;5045783;28;20203;-75
2021/08/23 00:49:24;;;;;;;12.73;8.63;;;16.60;99.90;;;;;;5050143;28;20195;-76
2021/08/23 00:51:52;;;;;;;14.35;9.50;;;16.60;99.90;;;;;;5043371;28;20638;-75
2021/08/23 00:54:19;;;;;;;13.18;9.02;;;16.70;99.90;;;;;;5046596;28;20210;-76
2021/08/23 00:56:46;;;;;;;14.45;9.63;;;16.70;99.90;;;;;;5044913;28;20666;-76
2021/08/23 00:59:13;;;;;;;12.48;8.90;;;16.70;99.90;;;;;;5049274;28;20225;-76
2021/08/23 01:01:49;;;;;;;10.60;8.02;;;16.70;99.90;;;;;;5050730;28;20230;-75
2021/08/23 01:04:23;;;;;;;12.20;8.10;;;16.80;99.90;;;;;;5049808;28;20703;-75
2021/08/23 01:06:50;;;;;;;10.52;7.75;;;16.80;99.90;;;;;;5048382;28;20214;-75
2021/08/23 01:09:18;;;;;;;12.63;8.35;;;16.80;99.90;;;;;;5055530;28;20213;-76
2021/08/23 01:11:51;;;;;;;10.80;8.75;;;16.80;99.90;;;;;;5046671;28;20195;-76
2021/08/23 01:14:19;;;;;;;13.88;9.68;;;16.80;99.90;;;;;;5025237;28;20208;-75
2021/08/23 01:16:47;;;;;;;13.43;9.82;;;16.80;99.90;;;;;;5043332;28;20214;-75
2021/08/23 01:19:17;;;;;;;12.43;9.48;;;16.80;99.90;;;;;;5057016;28;20573;-75
2021/08/23 01:21:44;;;;;;;14.23;10.50;;;16.80;99.90;;;;;;5044597;28;20235;-75
2021/08/23 01:24:13;;;;;;;16.60;10.30;;;16.80;99.90;;;;;;5049738;28;20205;-75
2021/08/23 01:26:43;;;;;;;14.98;9.88;;;16.80;99.90;;;;;;5044962;28;20209;-75
2021/08/23 01:29:16;;;;;;;16.83;10.90;;;16.80;99.90;;;;;;5044520;28;20211;-75
2021/08/23 01:31:52;;;;;;;15.10;10.60;;;16.80;99.90;;;;;;5048231;28;20253;-76
2021/08/23 01:34:21;;;;;;;14.80;10.73;;;16.80;99.90;;;;;;5045150;28;20203;-75
2021/08/23 01:36:49;;;;;;;12.38;9.35;;;16.70;99.90;;;;;;5043655;28;20203;-76
2021/08/23 01:39:16;;;;;;;14.35;9.38;;;16.70;99.90;;;;;;5051128;28;20588;-76
2021/08/23 01:41:43;;;;;;;13.38;9.05;;;16.80;99.90;;;;;;5055071;28;20226;-76
2021/08/23 01:44:11;;;;;;;14.85;8.98;;;16.70;99.90;;;;;;5049387;28;20211;-75
2021/08/23 01:46:38;;;;;;;13.23;9.25;;;16.70;99.90;;;;;;5042858;28;20210;-75
2021/08/23 01:49:09;;;;;;;12.50;9.52;;;16.70;99.90;;;;;;5050651;28;20209;-75
2021/08/23 01:51:38;;;;;;;15.57;9.25;;;16.70;99.90;;;;;;5049961;28;20565;-75
2021/08/23 01:54:05;;;;;;;10.57;8.48;;;16.70;99.90;;;;;;5051944;28;20211;-75
2021/08/23 01:56:32;;;;;;;13.10;9.07;;;16.70;99.90;;;;;;5052693;28;20207;-76
2021/08/23 01:59:03;;;;;;;12.60;8.35;;;16.60;99.90;;;;;;5051465;28;20204;-76
2021/08/23 02:01:31;;;;;;;10.40;8.60;;;16.60;99.90;;;;;;5052671;28;20226;-76
2021/08/23 02:03:59;;;;;;;11.02;7.53;;;16.60;99.90;;;;;;5052676;28;20657;-75
2021/08/23 02:06:26;;;;;;;9.18;7.60;;;16.50;99.90;;;;;;5052376;28;20205;-75
2021/08/23 02:08:55;;;;;;;9.10;7.00;;;16.50;99.90;;;;;;5051944;28;20296;-76
2021/08/23 02:11:23;;;;;;;12.38;7.93;;;16.50;99.90;;;;;;5052036;28;20209;-76
2021/08/23 02:13:51;;;;;;;9.07;7.00;;;16.50;99.90;;;;;;5051099;28;20206;-75
2021/08/23 02:16:18;;;;;;;10.43;7.43;;;16.50;99.90;;;;;;5052410;28;20213;-76
2021/08/23 02:18:45;;;;;;;9.57;6.45;;;16.50;99.90;;;;;;5065937;28;20206;-75
2021/08/23 02:21:11;;;;;;;9.20;6.47;;;16.40;99.90;;;;;;5072170;28;20232;-75
2021/08/23 02:23:39;;;;;;;11.52;7.22;;;16.40;99.90;;;;;;5072058;28;20682;-75
2021/08/23 02:26:07;;;;;;;10.27;6.50;;;16.40;99.90;;;;;;5071716;28;20238;-75
2021/08/23 02:28:34;;;;;;;7.53;6.40;;;16.40;99.90;;;;;;5047926;28;20631;-75
2021/08/23 02:31:01;;;;;;;10.52;7.00;;;16.40;99.90;;;;;;5051270;28;20203;-75
2021/08/23 02:33:28;;;;;;;9.77;6.68;;;16.30;99.90;;;;;;5043335;28;20281;-74
2021/08/23 02:35:55;;;;;;;11.90;6.82;;;16.30;99.90;;;;;;5045441;28;20196;-74
2021/08/23 02:38:22;;;;;;;7.28;6.15;;;16.30;99.90;;;;;;5049979;28;20256;-75
2021/08/23 02:40:49;;;;;;;9.70;6.65;;;16.30;99.90;;;;;;5051455;28;20210;-74
2021/08/23 02:43:18;;;;;;;8.60;6.70;;;16.30;99.90;;;;;;5059794;28;20230;-74
2021/08/23 02:45:45;;;;;;;9.52;6.13;;;16.30;99.90;;;;;;5045672;28;20458;-74
2021/08/23 02:48:11;;;;;;;9.23;6.57;;;16.40;99.90;;;;;;5051372;28;20253;-74
2021/08/23 02:50:38;;;;;;;9.18;6.10;;;16.30;99.90;;;;;;5041563;28;20545;-74
2021/08/23 02:53:05;;;;;;;7.38;6.35;;;16.40;99.90;;;;;;5047657;28;20719;-74
2021/08/23 02:55:32;;;;;;;8.18;6.32;;;16.40;99.90;;;;;;5053333;28;20696;-75
2021/08/23 02:57:59;;;;;;;11.10;6.60;;;16.30;99.90;;;;;;5041629;28;20203;-74
2021/08/23 03:00:28;;;;;;;8.93;6.00;;;16.30;99.90;;;;;;5047888;28;20696;-74
2021/08/23 03:02:55;;;;;;;8.40;5.80;;;16.30;99.90;;;;;;5050356;28;20597;-74
2021/08/23 03:05:22;;;;;;;9.43;6.30;;;16.30;99.90;;;;;;5046669;28;20207;-74
2021/08/23 03:07:49;;;;;;;7.30;6.10;;;16.30;99.90;;;;;;5056650;28;20248;-74
2021/08/23 03:10:16;;;;;;;7.55;5.80;;;16.30;99.90;;;;;;5058416;28;20199;-74
2021/08/23 03:12:43;;;;;;;8.05;5.85;;;16.30;99.90;;;;;;5048020;28;20328;-74
2021/08/23 03:15:11;;;;;;;9.10;6.47;;;16.30;99.90;;;;;;5050830;28;20202;-74
2021/08/23 03:17:39;;;;;;;11.80;6.72;;;16.30;99.90;;;;;;5047918;28;20208;-74
2021/08/23 03:20:07;;;;;;;9.07;6.35;;;16.20;99.90;;;;;;5049777;28;20202;-75
2021/08/23 03:22:34;;;;;;;10.10;6.80;;;16.20;99.90;;;;;;5044407;28;20222;-74
2021/08/23 03:25:01;;;;;;;8.50;6.95;;;16.30;99.90;;;;;;5051002;28;20211;-74
2021/08/23 03:27:28;;;;;;;11.23;7.07;;;16.20;99.90;;;;;;5046834;28;20212;-74
2021/08/23 03:29:55;;;;;;;11.60;7.63;;;16.20;99.90;;;;;;5038738;28;20715;-74
2021/08/23 03:32:22;;;;;;;13.70;8.00;;;16.30;99.90;;;;;;5048837;28;20203;-74
2021/08/23 03:34:50;;;;;;;9.73;7.15;;;16.20;99.90;;;;;;5050748;28;20241;-74
2021/08/23 03:37:17;;;;;;;11.35;7.50;;;16.30;99.90;;;;;;5051562;28;20195;-74
2021/08/23 03:39:45;;;;;;;9.60;6.80;;;16.20;99.90;;;;;;5052930;28;20637;-74
2021/08/23 03:42:12;;;;;;;9.60;7.43;;;16.20;99.90;;;;;;5054147;28;20735;-74
2021/08/23 03:44:39;;;;;;;12.65;7.32;;;16.20;99.90;;;;;;5054599;28;20560;-74
2021/08/23 03:47:06;;;;;;;10.48;7.18;;;16.10;99.90;;;;;;5059309;28;20199;-74
2021/08/23 03:49:33;;;;;;;9.60;7.45;;;16.10;99.90;;;;;;5055155;28;20198;-74
2021/08/23 03:52:01;;;;;;;10.30;7.55;;;16.10;99.90;;;;;;5054373;28;20203;-74
2021/08/23 03:54:28;;;;;;;11.50;8.88;;;16.20;99.90;;;;;;5065794;28;20207;-75
2021/08/23 03:56:55;;;;;;;11.50;8.48;;;16.10;99.90;;;;;;5052860;28;20602;-75
2021/08/23 03:59:22;;;;;;;10.90;8.77;;;16.10;99.90;;;;;;5053062;28;20245;-75
2021/08/23 04:01:49;;;;;;;13.40;9.40;;;16.10;99.90;;;;;;5050085;28;20722;-75
2021/08/23 04:04:16;;;;;;;13.20;9.38;;;16.10;99.90;;;;;;5039292;23;20705;-80
2021/08/23 04:06:45;;;;;;;13.65;9.30;;;16.20;99.90;;;;;;5003738;28;20208;-80
2021/08/23 04:09:14;;;;;;;14.25;9.80;;;16.10;99.90;;;;;;5010013;28;20204;-79
2021/08/23 04:11:41;;;;;;;15.77;9.77;;;16.10;99.90;;;;;;5021262;28;20794;-80
2021/08/23 04:14:08;;;;;;;13.93;9.20;;;16.10;99.90;;;;;;5019182;28;20227;-79
2021/08/23 04:16:35;;;;;;;12.20;9.38;;;16.10;99.90;;;;;;5031809;28;20626;-80
2021/08/23 04:19:02;;;;;;;15.15;10.05;;;16.10;99.90;;;;;;5017279;28;20209;-80
2021/08/23 04:21:29;;;;;;;11.43;9.15;;;16.10;99.90;;;;;;5017443;28;20710;-80
2021/08/23 04:23:55;;;;;;;13.02;9.25;;;16.10;99.90;;;;;;5015134;28;20304;-79
2021/08/23 04:26:24;;;;;;;14.38;9.57;;;16.10;99.90;;;;;;5019146;28;20200;-81
2021/08/23 04:28:50;;;;;;;12.63;8.55;;;16.10;99.90;;;;;;5006207;28;20205;-81
2021/08/23 04:31:17;;;;;;;12.13;8.85;;;16.10;99.90;;;;;;5016455;28;20208;-81
2021/08/23 04:33:46;;;;;;;13.23;9.10;;;16.10;99.90;;;;;;5014381;28;20677;-81
2021/08/23 04:36:13;;;;;;;15.25;8.80;;;16.10;99.90;;;;;;5012728;28;20215;-80
2021/08/23 04:38:40;;;;;;;14.43;9.75;;;16.10;99.90;;;;;;5013523;28;20208;-81
2021/08/23 04:41:07;;;;;;;16.80;10.20;;;16.10;99.90;;;;;;5013961;28;20212;-81
2021/08/23 04:43:35;;;;;;;13.45;9.27;;;16.10;99.90;;;;;;5013866;28;20228;-81
2021/08/23 04:46:02;;;;;;;17.35;9.95;;;16.10;99.90;;;;;;5016964;28;20200;-81
2021/08/23 04:48:29;;;;;;;13.90;9.35;;;16.10;99.90;;;;;;5015879;28;20299;-81
2021/08/23 04:50:56;;;;;;;12.77;9.35;;;16.10;99.90;;;;;;5030243;28;20292;-81
2021/08/23 04:53:23;;;;;;;14.07;8.93;;;16.10;99.90;;;;;;5026630;28;20299;-81
2021/08/23 04:55:50;;;;;;;14.50;9.23;;;16.00;99.90;;;;;;5016783;28;20207;-81
2021/08/23 04:58:16;;;;;;;13.32;8.98;;;16.00;99.90;;;;;;5015808;28;20223;-81
2021/08/23 05:00:45;;;;;;;12.82;8.43;;;16.00;99.90;;;;;;5016248;28;20208;-79
2021/08/23 05:03:11;;;;;;;12.23;8.18;;;16.10;99.90;;;;;;5014909;28;20278;-80
2021/08/23 05:05:38;;;;;;;15.68;9.52;;;16.00;99.90;;;;;;5010709;28;20291;-81
2021/08/23 05:08:06;;;;;;;10.10;8.38;;;16.00;99.90;;;;;;5012336;28;20197;-79
2021/08/23 05:10:33;;;;;;;12.55;9.45;;;16.10;99.90;;;;;;5015341;28;20400;-80
2021/08/23 05:13:00;;;;;;;11.27;8.23;;;16.10;99.90;;;;;;5014309;28;20512;-79
2021/08/23 05:15:27;;;;;;;11.90;9.15;;;16.20;99.90;;;;;;5010538;28;20197;-80
2021/08/23 05:17:56;;;;;;;13.85;9.75;;;16.10;99.90;;;;;;5011475;28;20580;-81
2021/08/23 05:20:22;;;;;;;14.63;9.75;;;16.10;99.90;;;;;;5016164;28;20208;-80
2021/08/23 05:22:49;;;;;;;15.43;9.70;;;16.10;99.90;;;;;;5016212;28;20317;-82
2021/08/23 05:25:16;;;;;;;14.10;9.48;;;16.10;99.90;;;;;;5015752;28;20291;-80
2021/08/23 05:27:43;;;;;;;14.93;9.85;;;16.20;99.90;;;;;;5015635;28;20201;-81
2021/08/23 05:30:11;;;;;;;13.88;9.07;;;16.20;99.90;;;;;;5027498;28;20314;-81
2021/08/23 05:32:38;;;;;;;13.82;9.48;;;16.20;99.90;;;;;;5017084;28;20201;-80
2021/08/23 05:35:08;;;;;;;13.15;9.55;;;16.20;99.90;;;;;;5013088;28;20224;-80
2021/08/23 05:37:35;;;;;;;11.55;8.85;;;16.20;99.90;;;;;;5012846;28;20706;-80
2021/08/23 05:40:02;;;;;;;14.68;9.77;;;16.20;99.90;;;;;;5016326;28;20294;-81
2021/08/23 05:42:28;;;;;;;10.93;8.50;;;16.10;99.90;;;;;;5014562;28;20675;-79
2021/08/23 05:44:56;;;;;;;13.20;8.85;;;16.10;99.90;;;;;;5016273;28;20816;-80
2021/08/23 05:47:23;;;;;;;15.98;9.07;;;16.20;99.90;;;;;;5015227;28;20197;-79
2021/08/23 05:49:50;;;;;;;10.95;8.60;;;16.20;99.90;;;;;;5011909;28;20201;-79
2021/08/23 05:52:18;;;;;;;13.38;8.18;;;16.20;99.90;;;;;;5016118;28;20564;-79
2021/08/23 05:54:46;;;;;;;13.65;9.13;;;16.20;99.90;;;;;;5015448;28;20381;-78
2021/08/23 05:57:13;;;;;;;13.18;8.82;;;16.20;99.90;;;;;;5015079;28;20680;-79
2021/08/23 05:59:40;;;;;;;10.82;8.48;;;16.20;99.90;;;;;;5015244;28;20296;-80
2021/08/23 06:02:07;;;;;;;14.15;8.35;;;16.10;99.90;;;;;;5015203;28;20573;-80
2021/08/23 06:04:34;;;;;;;10.38;7.63;;;16.10;99.90;;;;;;5013551;28;20659;-80
2021/08/23 06:07:01;;;;;;;11.38;8.55;;;16.20;99.90;;;;;;5012823;28;20206;-81
2021/08/23 06:09:30;;;;;;;11.73;8.45;;;16.20;99.90;;;;;;5014573;28;20310;-81
2021/08/23 06:11:56;;;;;;;9.35;7.97;;;16.10;99.90;;;;;;5011076;28;20220;-81
2021/08/23 06:14:23;;;;;;;14.80;8.77;;;16.00;99.90;;;;;;5012690;28;20739;-80
2021/08/23 06:16:50;;;;;;;15.20;8.65;;;16.00;99.90;;;;;;5012885;28;20240;-80
2021/08/23 06:19:17;;;;;;;12.13;9.05;;;15.90;99.90;;;;;;5009787;28;20210;-79
2021/08/23 06:21:44;;;;;;;12.55;8.73;;;16.00;99.90;;;;;;5012843;28;20299;-80
2021/08/23 06:24:11;;;;;;;11.85;8.30;;;15.90;99.90;;;;;;5001982;28;20704;-79
2021/08/23 06:26:39;;;;;;;13.43;8.70;;;15.90;99.90;;;;;;5014571;28;20214;-80
2021/08/23 06:29:07;;;;;;;11.53;7.80;;;15.90;99.90;;;;;;5015798;28;20291;-80
2021/08/23 06:31:34;;;;;;;10.68;7.72;;;15.90;99.90;;;;;;5013681;28;20655;-80
2021/08/23 06:34:01;;;;;;;11.75;8.45;;;15.90;99.90;;;;;;5010864;28;20639;-80
2021/08/23 06:36:28;;;;;;;12.40;8.43;;;15.90;99.90;;;;;;5008673;28;20228;-79
2021/08/23 06:38:55;;;;;;;12.13;7.25;;;15.70;99.90;;;;;;5021468;28;20207;-79
2021/08/23 06:41:23;;;;;;;9.88;6.70;;;15.90;99.90;;;;;;5014803;28;20206;-82
2021/08/23 06:43:51;;;;;;;9.90;7.38;;;15.90;99.90;;;;;;5015794;28;20336;-79
2021/08/23 06:46:19;;;;;;;9.93;7.03;;;16.00;99.90;;;;;;5014673;28;20232;-79
2021/08/23 06:48:46;;;;;;;9.60;6.80;;;16.00;99.90;;;;;;5016162;28;20379;-79
2021/08/23 06:51:15;;;;;;;9.60;6.55;;;16.00;99.90;;;;;;5012273;28;20230;-80
2021/08/23 06:53:42;;;;;;;10.73;6.75;;;16.00;99.90;;;;;;5015815;28;20243;-82
2021/08/23 06:56:08;;;;;;;10.80;6.40;;;16.00;99.90;;;;;;5015945;28;20242;-81
2021/08/23 06:58:35;;;;;;;9.10;6.32;;;16.10;99.90;;;;;;5013396;28;20291;-82
2021/08/23 07:01:03;;;;;;;8.18;5.75;;;16.10;99.90;;;;;;5001008;28;20200;-80
2021/08/23 07:03:31;;;;;;;8.38;6.22;;;16.10;99.90;;;;;;5011049;28;20232;-80
2021/08/23 07:05:59;;;;;;;8.40;5.65;;;16.10;99.90;;;;;;5002341;28;20700;-79
2021/08/23 07:08:26;;;;;;;6.90;4.90;;;16.20;99.90;;;;;;5020629;28;20204;-81
2021/08/23 07:10:53;;;;;;;7.00;5.22;;;16.10;99.90;;;;;;5015140;28;20291;-80
2021/08/23 07:13:20;;;;;;;9.25;5.93;;;16.20;99.90;;;;;;5021023;28;20311;-79
2021/08/23 07:15:46;;;;;;;10.70;6.03;;;16.20;99.90;;;;;;5020458;28;20235;-79
2021/08/23 07:18:15;;;;;;;9.70;5.45;;;16.30;99.90;;;;;;5013331;28;20706;-79
2021/08/23 07:20:41;;;;;;;7.38;5.00;;;16.30;99.90;;;;;;5013420;28;20295;-81
2021/08/23 07:23:09;;;;;;;9.02;6.05;;;16.40;99.90;;;;;;5010977;28;20777;-81
2021/08/23 07:25:36;;;;;;;9.13;5.57;;;16.40;99.90;;;;;;5011598;28;20203;-81
2021/08/23 07:28:03;;;;;;;5.28;4.65;;;16.40;99.90;;;;;;5010547;28;20207;-79
2021/08/23 07:30:30;;;;;;;7.15;4.65;;;16.30;99.90;;;;;;5011265;28;20204;-81
2021/08/23 07:32:56;;;;;;;9.60;4.90;;;16.30;99.90;;;;;;5013774;28;20669;-80
2021/08/23 07:35:25;;;;;;;8.60;5.30;;;16.30;99.90;;;;;;5014140;28;20315;-79
2021/08/23 07:37:51;;;;;;;9.60;4.65;;;16.20;99.90;;;;;;5015243;28;20234;-79
2021/08/23 07:40:18;;;;;;;9.07;5.07;;;16.30;99.90;;;;;;5010754;28;20231;-81
2021/08/23 07:42:46;;;;;;;9.35;5.20;;;16.30;99.90;;;;;;5012774;28;20689;-81
2021/08/23 07:45:14;;;;;;;8.32;4.93;;;16.30;99.90;;;;;;5012355;28;20232;-81
2021/08/23 07:47:41;;;;;;;9.85;5.05;;;16.30;99.90;;;;;;5012706;28;20303;-82
2021/08/23 07:50:09;;;;;;;11.20;6.05;;;16.20;99.90;;;;;;5015462;28;20231;-80
2021/08/23 07:52:38;;;;;;;10.15;4.97;;;16.30;99.90;;;;;;5013305;28;20204;-79
2021/08/23 07:55:06;;;;;;;7.45;5.50;;;16.30;99.90;;;;;;5013543;28;20216;-81
2021/08/23 07:57:33;;;;;;;8.25;5.22;;;16.40;99.90;;;;;;5014640;28;20619;-81
2021/08/23 07:59:59;;;;;;;8.40;4.90;;;16.40;99.90;;;;;;5014139;28;20592;-80
2021/08/23 08:02:26;;;;;;;8.85;5.75;;;16.40;99.90;;;;;;5013562;28;20208;-80
2021/08/23 08:04:53;;;;;;;8.23;4.88;;;16.60;99.90;;;;;;5013316;28;20224;-80
2021/08/23 08:07:20;;;;;;;6.85;4.80;;;16.50;99.90;;;;;;5014622;28;20209;-81
2021/08/23 08:09:48;;;;;;;8.80;4.80;;;16.50;99.90;;;;;;5009424;28;20287;-80
2021/08/23 08:12:15;;;;;;;6.28;4.80;;;16.50;99.90;;;;;;5012251;28;20296;-80
2021/08/23 08:14:42;;;;;;;6.07;4.40;;;16.50;99.90;;;;;;5009750;28;20726;-79
2021/08/23 08:17:08;;;;;;;6.50;4.95;;;16.60;99.90;;;;;;5013995;28;20654;-79
2021/08/23 08:19:36;;;;;;;6.13;4.55;;;16.70;99.90;;;;;;5012968;28;20204;-80
2021/08/23 08:22:05;;;;;;;9.23;5.28;;;16.80;99.90;;;;;;5012884;28;20200;-80
2021/08/23 08:24:32;;;;;;;8.95;5.50;;;16.70;99.90;;;;;;5013960;28;20235;-80
2021/08/23 08:27:00;;;;;;;7.82;4.55;;;16.80;99.90;;;;;;5005585;28;20291;-81
2021/08/23 08:29:27;;;;;;;7.97;5.35;;;16.80;99.90;;;;;;5018417;28;20210;-81
2021/08/23 08:31:54;;;;;;;9.85;5.07;;;16.90;99.90;;;;;;5016982;28;20291;-80
2021/08/23 08:34:21;;;;;;;8.23;4.55;;;16.80;99.90;;;;;;5015651;28;20258;-82
2021/08/23 08:36:48;;;;;;;8.52;4.80;;;16.90;99.90;;;;;;5016127;28;20295;-81
2021/08/23 08:39:15;;;;;;;8.65;4.80;;;17.00;99.90;;;;;;5029101;28;20291;-79
2021/08/23 08:41:41;;;;;;;6.90;4.53;;;17.00;99.90;;;;;;5016524;28;20201;-81
2021/08/23 08:44:10;;;;;;;12.05;4.55;;;16.90;99.90;;;;;;5016328;28;20630;-80
2021/08/23 08:46:37;;;;;;;9.20;5.10;;;17.00;99.90;;;;;;5019069;28;20745;-79
2021/08/23 08:49:05;;;;;;;8.55;5.05;;;17.10;99.90;;;;;;5018561;28;20210;-81
2021/08/23 08:51:35;;;;;;;6.32;4.70;;;17.20;99.90;;;;;;5017751;28;20307;-81
2021/08/23 08:54:03;;;;;;;5.28;4.30;;;17.30;99.90;;;;;;5017864;28;20251;-80
2021/08/23 08:56:31;;;;;;;5.15;4.28;;;17.30;99.90;;;;;;5018125;28;20634;-81
2021/08/23 08:58:58;;;;;;;6.70;4.43;;;17.40;99.90;;;;;;5019145;28;20295;-80
2021/08/23 09:01:26;;;;;;;9.52;4.80;;;17.50;99.90;;;;;;5018085;28;20273;-79
2021/08/23 09:03:53;;;;;;;7.70;4.63;;;17.60;99.90;;;;;;5026868;28;20228;-80
2021/08/23 09:06:21;;;;;;;8.77;4.18;;;17.70;99.90;;;;;;5021825;28;20646;-79
2021/08/23 09:08:48;;;;;;;5.72;4.55;;;17.90;99.90;;;;;;5016587;28;20215;-80
2021/08/23 09:11:16;;;;;;;7.57;4.72;;;17.70;99.90;;;;;;5017127;28;20204;-79
2021/08/23 09:13:58;;;;;;;7.82;4.78;;;17.80;99.90;;;;;;5019735;28;20231;-80
2021/08/23 09:16:28;;;;;;;9.73;5.05;;;17.80;99.90;;;;;;5018859;28;20250;-80
2021/08/23 09:18:56;;;;;;;8.07;4.72;;;17.70;99.90;;;;;;5019172;28;20211;-79
2021/08/23 09:21:29;;;;;;;6.32;4.40;;;17.90;99.90;;;;;;5019277;28;20264;-81
2021/08/23 09:23:57;;;;;;;7.70;4.82;;;17.90;99.90;;;;;;5018959;28;20310;-82
2021/08/23 09:26:29;;;;;;;8.63;4.95;;;17.90;99.90;;;;;;5017274;28;20254;-82
2021/08/23 09:28:58;;;;;;;9.57;4.50;;;18.00;99.90;;;;;;5017112;28;20200;-81
2021/08/23 09:31:27;;;;;;;7.40;4.95;;;18.00;99.90;;;;;;5017572;28;20268;-82
2021/08/23 09:33:57;;;;;;;6.38;4.50;;;18.30;99.90;;;;;;5018461;28;20330;-81
2021/08/23 09:36:24;;;;;;;8.80;5.13;;;18.40;99.90;;;;;;5017480;28;20781;-81
2021/08/23 09:39:02;;;;;;;7.85;4.78;;;18.50;99.90;;;;;;5016129;28;20212;-82
2021/08/23 09:41:30;;;;;;;7.13;5.30;;;18.40;99.90;;;;;;5017953;28;20204;-81
2021/08/23 09:44:01;;;;;;;11.27;5.07;;;18.50;99.90;;;;;;5016257;28;20220;-81
2021/08/23 09:46:32;;;;;;;5.95;5.05;;;18.70;99.90;;;;;;5018046;28;20559;-81
2021/08/23 09:49:02;;;;;;;6.00;5.03;;;18.80;99.90;;;;;;5017048;28;20299;-80
2021/08/23 09:51:30;;;;;;;7.80;5.10;;;18.70;99.90;;;;;;5014599;28;20669;-80
2021/08/23 09:54:11;;;;;;;6.45;4.57;;;19.00;99.90;;;;;;5015581;28;20303;-79
2021/08/23 09:56:44;;;;;;;8.13;4.43;;;19.00;99.90;;;;;;5013392;28;20203;-79
2021/08/23 09:59:14;;;;;;;7.68;4.80;;;19.10;99.90;;;;;;5016602;28;20214;-80
2021/08/23 10:01:44;;;;;;;5.75;4.30;;;19.70;99.90;;;;;;5015709;28;20204;-80
2021/08/23 10:04:12;;;;;;;5.70;4.45;;;19.90;99.90;;;;;;5063000;23;20226;-76
2021/08/23 10:06:41;;;;;;;6.47;4.53;;;19.60;99.90;;;;;;5052234;28;20203;-77
2021/08/23 10:09:17;;;;;;;6.22;4.18;;;19.90;99.90;;;;;;5051911;28;20203;-76
2021/08/23 10:11:45;;;;;;;4.68;3.67;;;20.20;99.90;;;;;;5052297;28;20218;-77
2021/08/23 10:14:13;;;;;;;4.85;3.47;;;19.90;99.90;;;;;;5052621;28;20198;-77
2021/08/23 10:16:40;;;;;;;5.18;3.80;;;19.80;99.90;;;;;;5052084;28;20566;-76
2021/08/23 10:19:09;;;;;;;5.05;3.70;;;19.70;99.90;;;;;;5051851;28;20215;-77
2021/08/23 10:21:40;;;;;;;4.95;3.92;;;19.50;99.90;;;;;;5056450;28;20252;-77
2021/08/23 10:24:08;;;;;;;4.03;3.63;;;19.40;99.90;;;;;;5058761;28;20234;-77
2021/08/23 10:26:42;;;;;;;6.10;4.07;;;19.50;99.90;;;;;;5052438;28;20718;-77
2021/08/23 10:29:10;;;;;;;5.72;3.55;;;19.50;99.90;;;;;;5043480;28;20209;-77
2021/08/23 10:31:40;;;;;;;5.40;3.60;;;19.80;99.90;;;;;;5050071;28;20657;-77
2021/08/23 10:34:13;;;;;;;3.58;3.10;;;19.90;99.90;;;;;;5057533;28;20280;-77
2021/08/23 10:36:41;;;;;;;4.60;3.13;;;19.90;99.90;;;;;;5048888;28;20211;-77
2021/08/23 10:39:09;;;;;;;4.63;3.20;;;20.10;99.90;;;;;;5061277;28;20213;-77
2021/08/23 10:41:36;;;;;;;3.20;2.90;;;20.10;99.90;;;;;;5059660;28;20199;-77
2021/08/23 10:44:05;;;;;;;4.35;3.05;;;19.90;99.90;;;;;;5052502;28;20272;-77
2021/08/23 10:46:34;;;;;;;4.13;2.47;;;19.90;99.90;;;;;;5055182;28;20676;-77
2021/08/23 10:49:05;;;;;;;3.67;2.55;;;20.20;99.90;;;;;;5058393;28;20203;-77
2021/08/23 10:51:38;;;;;;;2.92;2.20;;;20.50;99.90;;;;;;5051387;28;20199;-77
2021/08/23 10:54:21;;;;;;;3.05;2.13;;;20.70;99.90;;;;;;5053365;28;20199;-77
2021/08/23 10:56:51;;;;;;;2.28;1.95;;;20.70;99.90;;;;;;5067697;28;20455;-77
2021/08/23 10:59:19;;;;;;;3.25;2.05;;;20.60;99.90;;;;;;5053933;28;20242;-77
2021/08/23 11:01:56;;;;;;;4.03;2.17;;;20.80;99.90;;;;;;5053483;28;20294;-77
2021/08/23 11:04:32;;;;;;;3.30;2.28;;;20.90;99.90;;;;;;5056085;28;20238;-77
2021/08/23 11:07:01;;;;;;;3.25;2.20;;;20.80;99.90;;;;;;5054924;28;20195;-77
2021/08/23 11:09:36;;;;;;;2.50;2.10;;;20.70;99.90;;;;;;5051582;28;20674;-77
2021/08/23 11:12:11;;;;;;;3.35;2.33;;;21.10;99.90;;;;;;5058983;28;20212;-77
2021/08/23 11:14:49;;;;;;;6.20;2.70;;;21.00;99.90;;;;;;5063380;28;20202;-77
2021/08/23 11:17:31;;;;;;;3.45;2.40;;;21.00;99.90;;;;;;5057210;28;20199;-77
2021/08/23 11:20:00;;;;;;;4.97;2.70;;;20.70;99.90;;;;;;5053199;28;20228;-77
2021/08/23 11:22:28;;;;;;;3.10;2.20;;;20.80;99.90;;;;;;5059153;28;20623;-77
2021/08/23 11:24:55;;;;;;;2.72;2.25;;;21.10;99.90;;;;;;5047677;28;20210;-77
2021/08/23 11:27:22;;;;;;;3.70;2.10;;;21.50;99.90;;;;;;5048664;28;20199;-77
2021/08/23 11:29:52;;;;;;;2.63;2.22;;;21.60;99.90;;;;;;5047246;28;20199;-77
2021/08/23 11:32:20;;;;;;;3.83;1.90;;;21.50;99.90;;;;;;5054098;28;20224;-77
2021/08/23 11:34:51;;;;;;;2.30;1.80;;;21.00;99.90;;;;;;5058265;28;20194;-77
2021/08/23 11:37:22;;;;;;;2.00;1.90;;;20.70;99.90;;;;;;5047796;28;20200;-77
2021/08/23 11:40:00;;;;;;;2.63;1.60;;;20.40;99.90;;;;;;5054059;28;20298;-77
2021/08/23 11:42:27;;;;;;;3.38;1.90;;;20.90;99.90;;;;;;5036980;28;20203;-77
2021/08/23 11:44:54;;;;;;;2.17;1.50;;;21.40;99.90;;;;;;5050068;28;20219;-77
2021/08/23 11:47:30;;;;;;;2.45;1.63;;;21.70;99.90;;;;;;5048705;28;20207;-77
2021/08/23 11:49:58;;;;;;;2.38;1.67;;;21.70;99.90;;;;;;5040935;28;20205;-77
2021/08/23 11:52:25;;;;;;;1.77;1.30;;;21.70;99.90;;;;;;5057816;28;20206;-77
2021/08/23 11:54:55;;;;;;;2.92;1.70;;;21.80;99.90;;;;;;5048336;28;20195;-77
2021/08/23 11:57:23;;;;;;;1.65;1.35;;;21.80;99.90;;;;;;5056284;28;20671;-76
2021/08/23 11:59:58;;;;;;;2.65;1.50;;;21.80;99.90;;;;;;5063336;28;20649;-77
2021/08/23 12:02:30;;;;;;;3.05;1.38;;;21.60;99.90;;;;;;5053255;28;20208;-76
2021/08/23 12:05:13;;;;;;;1.30;1.20;;;21.80;99.90;;;;;;5014689;28;1079306;-76
2021/08/23 12:07:48;;;;;;;2.83;1.38;;;22.20;99.90;;;;;;5056867;28;20221;-77
2021/08/23 12:10:29;;;;;;;1.25;1.10;;;22.20;99.90;;;;;;5053345;28;20683;-77
2021/08/23 12:13:11;;;;;;;2.33;1.33;;;22.20;99.90;;;;;;5071784;28;20648;-77
2021/08/23 12:15:51;;;;;;;1.23;1.13;;;22.10;99.90;;;;;;5063461;28;20249;-77
2021/08/23 12:18:18;;;;;;;1.58;1.48;;;22.40;99.90;;;;;;5053431;28;20199;-77
2021/08/23 12:21:02;;;;;;;1.45;1.35;;;22.40;99.90;;;;;;5058829;28;20203;-77
2021/08/23 12:23:29;;;;;;;2.28;1.40;;;22.00;99.90;;;;;;5054875;28;20213;-77
2021/08/23 12:26:06;;;;;;;1.90;1.13;;;22.20;99.90;;;;;;5054180;28;20222;-76
2021/08/23 12:28:33;;;;;;;2.50;1.42;;;22.40;99.90;;;;;;5056335;28;20202;-76
2021/08/23 12:31:06;;;;;;;2.03;1.63;;;22.20;99.90;;;;;;5068376;28;20210;-76
2021/08/23 12:33:32;;;;;;;1.10;0.95;;;22.70;99.90;;;;;;5065894;28;20202;-76
2021/08/23 12:35:59;;;;;;;1.45;1.20;;;22.60;99.90;;;;;;5054520;28;20211;-77
2021/08/23 12:38:26;;;;;;;1.30;1.20;;;22.80;99.90;;;;;;5059448;28;20210;-76
2021/08/23 12:40:53;;;;;;;1.45;1.35;;;23.10;99.90;;;;;;5053810;28;20213;-77
2021/08/23 12:43:21;;;;;;;1.42;1.13;;;22.30;99.90;;;;;;5049982;28;20204;-77
2021/08/23 12:45:48;;;;;;;1.85;1.10;;;22.00;99.90;;;;;;5051544;28;20231;-77
2021/08/23 12:48:15;;;;;;;2.58;1.10;;;22.20;99.90;;;;;;5048645;28;20203;-77